createdAt,value
2022-10-11T04:01:55.232Z,2.78
2022-10-11T04:06:07.743Z,3.20
2022-10-11T04:10:20.696Z,2.90
2022-10-11T04:14:32.225Z,3.38
2022-10-11T04:18:43.715Z,3.05
2022-10-11T04:22:55.197Z,3.20
2022-10-11T04:27:06.704Z,3.40
2022-10-11T04:31:18.211Z,3.45
2022-10-11T04:35:29.795Z,3.00
2022-10-11T04:39:41.302Z,3.10
2022-10-11T04:43:52.784Z,2.80
2022-10-11T04:48:04.402Z,3.20
2022-10-11T04:52:15.895Z,2.95
2022-10-11T04:56:27.603Z,2.92
2022-10-11T05:00:39.087Z,2.92
2022-10-11T05:04:51.109Z,2.90
2022-10-11T05:09:02.651Z,2.72
2022-10-11T05:13:14.141Z,2.50
2022-10-11T05:17:25.658Z,2.35
2022-10-11T05:21:37.155Z,2.70
2022-10-11T05:25:48.651Z,2.20
2022-10-11T05:30:00.143Z,2.90
2022-10-11T05:34:11.637Z,2.55
2022-10-11T05:38:23.795Z,2.40
2022-10-11T05:42:35.279Z,2.70
2022-10-11T05:46:46.837Z,2.25
2022-10-11T05:51:03.341Z,2.60
2022-10-11T05:55:14.936Z,2.65
2022-10-11T05:59:26.572Z,2.55
2022-10-11T06:03:38.068Z,2.33
2022-10-11T06:07:49.569Z,2.00
2022-10-11T06:12:01.516Z,2.00
2022-10-11T06:16:13.576Z,1.90
2022-10-11T06:20:26.090Z,1.70
2022-10-11T06:24:37.709Z,1.90
2022-10-11T06:28:49.348Z,1.63
2022-10-11T06:33:04.633Z,1.73
2022-10-11T06:37:16.480Z,1.90
2022-10-11T06:41:30.360Z,2.38
2022-10-11T06:45:41.857Z,1.90
2022-10-11T06:49:53.352Z,2.10
2022-10-11T06:54:05.264Z,2.13
2022-10-11T06:58:16.773Z,2.00
2022-10-11T07:02:28.386Z,2.20
2022-10-11T07:06:41.395Z,1.60
2022-10-11T07:10:53.041Z,1.83
2022-10-11T07:15:05.641Z,2.53
2022-10-11T07:19:17.203Z,1.75
2022-10-11T07:23:28.725Z,2.03
2022-10-11T07:27:40.284Z,1.80
2022-10-11T07:31:51.812Z,2.05
2022-10-11T07:36:05.552Z,1.75
2022-10-11T07:40:17.298Z,2.13
2022-10-11T07:44:28.860Z,2.03
2022-10-11T07:48:40.627Z,1.67
2022-10-11T07:52:52.202Z,2.22
2022-10-11T07:57:03.808Z,1.85
2022-10-11T08:01:15.468Z,1.70
2022-10-11T08:05:29.961Z,1.52
2022-10-11T08:09:41.544Z,1.70
2022-10-11T08:13:53.134Z,1.58
2022-10-11T08:18:04.660Z,1.60
2022-10-11T08:22:16.233Z,1.90
2022-10-11T08:26:27.838Z,1.50
2022-10-11T08:30:39.381Z,1.30
2022-10-11T08:34:50.879Z,1.40
2022-10-11T08:39:02.549Z,1.55
2022-10-11T08:43:40.163Z,1.40
2022-10-11T08:48:01.197Z,1.50
2022-10-11T08:52:20.458Z,1.50
2022-10-11T08:56:36.637Z,1.80
2022-10-11T09:00:53.211Z,1.83
2022-10-11T09:05:05.435Z,1.60
2022-10-11T09:09:25.940Z,1.60
2022-10-11T09:14:03.214Z,1.60
2022-10-11T09:18:29.890Z,1.80
2022-10-11T09:22:43.026Z,1.60
2022-10-11T09:27:01.503Z,1.50
2022-10-11T09:31:13.098Z,2.10
2022-10-11T09:35:24.908Z,1.70
2022-10-11T09:39:41.616Z,1.60
2022-10-11T09:43:53.237Z,1.35
2022-10-11T09:48:07.308Z,1.55
2022-10-11T09:52:22.841Z,1.60
2022-10-11T09:56:42.091Z,1.08
2022-10-11T10:01:21.694Z,1.05
2022-10-11T10:05:36.870Z,1.27
2022-10-11T10:09:49.675Z,1.42
2022-10-11T10:14:01.396Z,1.10
2022-10-11T10:18:36.694Z,0.95
2022-10-11T10:22:49.146Z,1.20
2022-10-11T10:27:21.391Z,1.48
2022-10-11T10:36:35.218Z,1.10
2022-10-11T10:40:52.720Z,0.90
2022-10-11T10:45:11.888Z,1.20
2022-10-11T10:49:58.811Z,1.20
2022-10-11T10:54:52.320Z,1.15
2022-10-11T10:59:29.962Z,1.50
2022-10-11T11:03:45.912Z,1.17
2022-10-11T11:08:04.048Z,1.40
2022-10-11T11:12:24.682Z,1.10
2022-10-11T11:16:45.984Z,1.20
2022-10-11T11:21:28.355Z,1.20
2022-10-11T11:25:48.214Z,1.20
2022-10-11T11:30:13.874Z,1.27
2022-10-11T11:34:37.865Z,1.30
2022-10-11T11:38:56.665Z,1.20
2022-10-11T11:43:20.537Z,1.30
2022-10-11T11:47:42.413Z,1.02
2022-10-11T11:51:55.036Z,1.15
2022-10-11T11:56:17.596Z,1.40
2022-10-11T12:00:40.377Z,1.42
2022-10-11T12:04:52.988Z,1.15
2022-10-11T12:09:07.500Z,1.58
2022-10-11T12:13:32.129Z,1.20
2022-10-11T12:17:53.038Z,1.58
2022-10-11T12:22:27.625Z,1.65
2022-10-11T12:26:44.631Z,1.10
2022-10-11T12:31:05.334Z,1.00
2022-10-11T12:35:32.446Z,1.40
2022-10-11T12:39:49.296Z,1.20
2022-10-11T12:44:24.696Z,1.42
2022-10-11T12:48:40.746Z,1.48
2022-10-11T12:53:12.063Z,1.42
2022-10-11T12:58:01.205Z,1.17
2022-10-11T13:02:39.037Z,1.63
2022-10-11T13:06:55.150Z,1.48
2022-10-11T13:11:10.701Z,1.20
2022-10-11T13:15:24.362Z,1.50
2022-10-11T13:19:37.815Z,1.60
2022-10-11T13:23:49.438Z,1.10
2022-10-11T13:28:00.936Z,1.02
2022-10-11T13:32:16.507Z,1.48
2022-10-11T13:36:28.588Z,1.30
2022-10-11T13:40:40.132Z,1.83
2022-10-11T13:44:51.901Z,1.17
2022-10-11T13:49:23.345Z,1.40
2022-10-11T13:53:35.124Z,1.60
2022-10-11T13:57:49.400Z,1.08
2022-10-11T14:02:04.251Z,1.50
2022-10-11T14:06:15.759Z,1.55
2022-10-11T14:10:28.268Z,1.40
2022-10-11T14:14:42.623Z,1.60
2022-10-11T14:19:08.436Z,1.50
2022-10-11T14:23:19.922Z,1.40
2022-10-11T14:27:31.578Z,1.60
2022-10-11T14:31:43.457Z,1.42
2022-10-11T14:35:55.072Z,1.40
2022-10-11T14:40:18.508Z,1.20
2022-10-11T14:44:30.061Z,1.38
2022-10-11T14:48:54.859Z,1.33
2022-10-11T14:53:08.081Z,1.30
2022-10-11T14:57:19.597Z,1.17
2022-10-11T15:01:31.275Z,0.90
2022-10-11T15:05:42.860Z,1.00
2022-10-11T15:09:54.404Z,1.48
2022-10-11T15:14:06.558Z,1.70
2022-10-11T15:18:18.535Z,1.55
2022-10-11T15:22:30.367Z,1.50
2022-10-11T15:26:42.268Z,1.35
2022-10-11T15:30:54.300Z,1.65
2022-10-11T15:35:06.600Z,1.15
2022-10-11T15:39:33.882Z,1.30
2022-10-11T15:43:48.008Z,1.55
2022-10-11T15:47:59.885Z,1.20
2022-10-11T15:52:11.521Z,1.10
2022-10-11T15:56:23.035Z,1.08
2022-10-11T16:00:34.516Z,1.27
2022-10-11T16:04:46.002Z,1.50
2022-10-11T16:08:57.528Z,1.08
2022-10-11T16:13:10.285Z,1.42
2022-10-11T16:17:21.771Z,1.38
2022-10-11T16:21:33.316Z,1.13
2022-10-11T16:25:45.002Z,1.40
2022-10-11T16:29:56.603Z,1.13
2022-10-11T16:34:08.126Z,1.88
2022-10-11T16:38:19.634Z,1.38
2022-10-11T16:42:31.420Z,1.27
2022-10-11T16:46:44.925Z,1.60
2022-10-11T16:51:05.153Z,1.23
2022-10-11T16:55:16.714Z,1.52
2022-10-11T16:59:28.253Z,1.70
2022-10-11T17:03:39.825Z,1.20
2022-10-11T17:07:51.316Z,1.02
2022-10-11T17:12:02.995Z,1.40
2022-10-11T17:16:15.555Z,1.95
2022-10-11T17:20:27.092Z,3.58
2022-10-11T17:24:38.723Z,1.42
2022-10-11T17:28:50.591Z,1.20
2022-10-11T17:33:02.150Z,1.33
2022-10-11T17:37:13.921Z,1.40
2022-10-11T17:41:30.895Z,1.50
2022-10-11T17:45:43.475Z,1.60
2022-10-11T17:49:54.948Z,3.33
2022-10-11T17:54:06.756Z,2.20
2022-10-11T17:58:18.365Z,1.70
2022-10-11T18:02:29.950Z,1.52
2022-10-11T18:06:41.476Z,1.67
2022-10-11T18:10:52.980Z,1.80
2022-10-11T18:15:04.697Z,2.08
2022-10-11T18:19:16.356Z,2.30
2022-10-11T18:23:27.869Z,2.17
2022-10-11T18:27:39.464Z,1.85
2022-10-11T18:31:50.985Z,1.60
2022-10-11T18:36:05.406Z,1.90
2022-10-11T18:40:17.262Z,2.03
2022-10-11T18:44:28.788Z,1.85
2022-10-11T18:48:42.029Z,2.33
2022-10-11T18:52:53.638Z,2.15
2022-10-11T18:57:05.196Z,2.30
2022-10-11T19:01:22.694Z,1.90
2022-10-11T19:05:34.282Z,1.90
2022-10-11T19:09:49.030Z,2.03
2022-10-11T19:14:07.268Z,2.03
2022-10-11T19:18:31.001Z,1.95
2022-10-11T19:22:48.966Z,2.05
2022-10-11T19:27:03.020Z,2.30
2022-10-11T19:31:18.839Z,2.65
2022-10-11T19:35:33.632Z,2.35
2022-10-11T19:39:50.322Z,2.70
2022-10-11T19:44:02.330Z,2.22
2022-10-11T19:48:14.255Z,2.25
2022-10-11T19:52:26.974Z,2.22
2022-10-11T19:56:38.969Z,2.22
2022-10-11T20:05:53.367Z,2.22
2022-10-11T20:10:35.455Z,2.10
2022-10-11T20:14:58.101Z,2.40
2022-10-11T20:19:34.590Z,2.25
2022-10-11T20:24:01.595Z,2.50
2022-10-11T20:28:13.462Z,2.08
2022-10-11T20:32:25.061Z,1.80
2022-10-11T20:36:40.003Z,2.00
2022-10-11T20:40:51.546Z,2.22
2022-10-11T20:45:03.292Z,2.38
2022-10-11T20:49:14.902Z,2.20
2022-10-11T20:59:27.105Z,2.28
2022-10-11T21:03:38.822Z,1.90
2022-10-11T21:08:01.082Z,2.25
2022-10-11T21:13:33.663Z,2.05
